sensor_id;sensor_type;location;lat;lon;timestamp;P1;durP1;ratioP1;P2;durP2;ratioP2
48861;SDS011;34681;49.188;-0.374;2023-04-22T00:00:13;23.30;;;20.90;;
48861;SDS011;34681;49.188;-0.374;2023-04-22T00:02:39;22.50;;;20.30;;
48861;SDS011;34681;49.188;-0.374;2023-04-22T00:05:05;25.00;;;22.60;;
48861;SDS011;34681;49.188;-0.374;2023-04-22T00:07:31;25.57;;;23.07;;
48861;SDS011;34681;49.188;-0.374;2023-04-22T00:09:56;22.40;;;20.30;;
48861;SDS011;34681;49.188;-0.374;2023-04-22T00:12:22;20.77;;;18.70;;
48861;SDS011;34681;49.188;-0.374;2023-04-22T00:14:48;23.27;;;21.00;;
48861;SDS011;34681;49.188;-0.374;2023-04-22T00:17:13;21.33;;;19.30;;
48861;SDS011;34681;49.188;-0.374;2023-04-22T00:19:39;21.33;;;19.13;;
48861;SDS011;34681;49.188;-0.374;2023-04-22T00:22:05;20.57;;;18.57;;
48861;SDS011;34681;49.188;-0.374;2023-04-22T00:24:30;21.73;;;19.57;;
48861;SDS011;34681;49.188;-0.374;2023-04-22T00:26:56;21.30;;;19.23;;
48861;SDS011;34681;49.188;-0.374;2023-04-22T00:29:22;19.43;;;17.43;;
48861;SDS011;34681;49.188;-0.374;2023-04-22T00:31:47;20.20;;;18.23;;
48861;SDS011;34681;49.188;-0.374;2023-04-22T00:34:12;21.80;;;19.87;;
48861;SDS011;34681;49.188;-0.374;2023-04-22T00:36:38;21.33;;;19.00;;
48861;SDS011;34681;49.188;-0.374;2023-04-22T00:39:03;21.07;;;19.07;;
48861;SDS011;34681;49.188;-0.374;2023-04-22T00:41:28;19.60;;;17.70;;
48861;SDS011;34681;49.188;-0.374;2023-04-22T00:43:55;21.23;;;19.07;;
48861;SDS011;34681;49.188;-0.374;2023-04-22T00:46:21;22.73;;;20.50;;
48861;SDS011;34681;49.188;-0.374;2023-04-22T00:48:46;19.10;;;17.30;;
48861;SDS011;34681;49.188;-0.374;2023-04-22T00:51:12;22.70;;;20.73;;
48861;SDS011;34681;49.188;-0.374;2023-04-22T00:53:37;19.90;;;17.97;;
48861;SDS011;34681;49.188;-0.374;2023-04-22T00:56:03;19.67;;;17.80;;
48861;SDS011;34681;49.188;-0.374;2023-04-22T00:58:28;20.47;;;18.57;;
48861;SDS011;34681;49.188;-0.374;2023-04-22T01:00:54;19.70;;;17.73;;
48861;SDS011;34681;49.188;-0.374;2023-04-22T01:03:19;21.47;;;19.00;;
48861;SDS011;34681;49.188;-0.374;2023-04-22T01:05:46;20.87;;;18.93;;
48861;SDS011;34681;49.188;-0.374;2023-04-22T01:08:13;20.80;;;18.90;;
48861;SDS011;34681;49.188;-0.374;2023-04-22T01:10:39;20.83;;;18.83;;
48861;SDS011;34681;49.188;-0.374;2023-04-22T01:13:06;20.33;;;18.33;;
48861;SDS011;34681;49.188;-0.374;2023-04-22T01:15:31;19.23;;;17.37;;
48861;SDS011;34681;49.188;-0.374;2023-04-22T01:17:57;20.67;;;18.73;;
48861;SDS011;34681;49.188;-0.374;2023-04-22T01:20:25;20.70;;;18.63;;
48861;SDS011;34681;49.188;-0.374;2023-04-22T01:22:53;20.40;;;18.53;;
48861;SDS011;34681;49.188;-0.374;2023-04-22T01:25:20;20.03;;;18.13;;
48861;SDS011;34681;49.188;-0.374;2023-04-22T01:27:45;22.10;;;19.93;;
48861;SDS011;34681;49.188;-0.374;2023-04-22T01:30:11;19.00;;;17.10;;
48861;SDS011;34681;49.188;-0.374;2023-04-22T01:32:37;19.63;;;17.77;;
48861;SDS011;34681;49.188;-0.374;2023-04-22T01:35:03;17.40;;;15.80;;
48861;SDS011;34681;49.188;-0.374;2023-04-22T01:37:29;19.40;;;17.63;;
48861;SDS011;34681;49.188;-0.374;2023-04-22T01:39:56;19.27;;;17.53;;
48861;SDS011;34681;49.188;-0.374;2023-04-22T01:42:22;18.37;;;16.70;;
48861;SDS011;34681;49.188;-0.374;2023-04-22T01:44:48;18.90;;;17.10;;
48861;SDS011;34681;49.188;-0.374;2023-04-22T01:47:13;20.20;;;18.20;;
48861;SDS011;34681;49.188;-0.374;2023-04-22T01:49:39;19.10;;;17.10;;
48861;SDS011;34681;49.188;-0.374;2023-04-22T01:52:04;20.17;;;18.37;;
48861;SDS011;34681;49.188;-0.374;2023-04-22T01:54:29;18.90;;;17.00;;
48861;SDS011;34681;49.188;-0.374;2023-04-22T01:56:55;18.30;;;16.60;;
48861;SDS011;34681;49.188;-0.374;2023-04-22T01:59:22;20.30;;;18.27;;
48861;SDS011;34681;49.188;-0.374;2023-04-22T02:01:47;22.27;;;19.10;;
48861;SDS011;34681;49.188;-0.374;2023-04-22T02:04:13;21.17;;;18.97;;
48861;SDS011;34681;49.188;-0.374;2023-04-22T02:06:38;21.63;;;19.43;;
48861;SDS011;34681;49.188;-0.374;2023-04-22T02:09:03;22.10;;;19.97;;
48861;SDS011;34681;49.188;-0.374;2023-04-22T02:11:29;22.07;;;19.97;;
48861;SDS011;34681;49.188;-0.374;2023-04-22T02:13:54;22.13;;;19.83;;
48861;SDS011;34681;49.188;-0.374;2023-04-22T02:16:20;23.43;;;21.17;;
48861;SDS011;34681;49.188;-0.374;2023-04-22T02:18:45;22.53;;;20.60;;
48861;SDS011;34681;49.188;-0.374;2023-04-22T02:21:11;22.67;;;20.67;;
48861;SDS011;34681;49.188;-0.374;2023-04-22T02:23:36;20.37;;;18.57;;
48861;SDS011;34681;49.188;-0.374;2023-04-22T02:26:03;23.93;;;21.60;;
48861;SDS011;34681;49.188;-0.374;2023-04-22T02:28:28;22.73;;;20.30;;
48861;SDS011;34681;49.188;-0.374;2023-04-22T02:30:54;19.67;;;17.77;;
48861;SDS011;34681;49.188;-0.374;2023-04-22T02:33:19;21.73;;;19.73;;
48861;SDS011;34681;49.188;-0.374;2023-04-22T02:35:45;21.77;;;19.77;;
48861;SDS011;34681;49.188;-0.374;2023-04-22T02:38:10;22.40;;;20.30;;
48861;SDS011;34681;49.188;-0.374;2023-04-22T02:40:35;21.20;;;19.00;;
48861;SDS011;34681;49.188;-0.374;2023-04-22T02:43:01;21.00;;;18.80;;
48861;SDS011;34681;49.188;-0.374;2023-04-22T02:45:26;24.10;;;21.80;;
48861;SDS011;34681;49.188;-0.374;2023-04-22T02:47:51;20.77;;;18.77;;
48861;SDS011;34681;49.188;-0.374;2023-04-22T02:50:17;21.27;;;19.37;;
48861;SDS011;34681;49.188;-0.374;2023-04-22T02:52:42;23.83;;;21.43;;
48861;SDS011;34681;49.188;-0.374;2023-04-22T02:55:08;21.70;;;19.57;;
48861;SDS011;34681;49.188;-0.374;2023-04-22T02:57:33;21.20;;;19.20;;
48861;SDS011;34681;49.188;-0.374;2023-04-22T02:59:59;21.80;;;19.70;;
48861;SDS011;34681;49.188;-0.374;2023-04-22T03:02:24;22.73;;;20.50;;
48861;SDS011;34681;49.188;-0.374;2023-04-22T03:04:50;21.33;;;19.13;;
48861;SDS011;34681;49.188;-0.374;2023-04-22T03:07:18;22.47;;;20.17;;
48861;SDS011;34681;49.188;-0.374;2023-04-22T03:09:43;21.73;;;19.60;;
48861;SDS011;34681;49.188;-0.374;2023-04-22T03:12:09;21.57;;;19.40;;
48861;SDS011;34681;49.188;-0.374;2023-04-22T03:14:34;22.70;;;20.60;;
48861;SDS011;34681;49.188;-0.374;2023-04-22T03:17:00;21.77;;;19.60;;
48861;SDS011;34681;49.188;-0.374;2023-04-22T03:19:25;21.33;;;19.33;;
48861;SDS011;34681;49.188;-0.374;2023-04-22T03:21:50;20.03;;;18.23;;
48861;SDS011;34681;49.188;-0.374;2023-04-22T03:24:15;23.53;;;20.90;;
48861;SDS011;34681;49.188;-0.374;2023-04-22T03:26:41;20.67;;;18.73;;
48861;SDS011;34681;49.188;-0.374;2023-04-22T03:29:06;17.80;;;15.80;;
48861;SDS011;34681;49.188;-0.374;2023-04-22T03:31:31;18.77;;;17.03;;
48861;SDS011;34681;49.188;-0.374;2023-04-22T03:33:57;18.90;;;17.13;;
48861;SDS011;34681;49.188;-0.374;2023-04-22T03:36:22;21.23;;;19.30;;
48861;SDS011;34681;49.188;-0.374;2023-04-22T03:38:47;18.80;;;17.03;;
48861;SDS011;34681;49.188;-0.374;2023-04-22T03:41:13;19.03;;;16.97;;
48861;SDS011;34681;49.188;-0.374;2023-04-22T03:43:39;17.63;;;15.90;;
48861;SDS011;34681;49.188;-0.374;2023-04-22T03:46:04;19.00;;;17.23;;
48861;SDS011;34681;49.188;-0.374;2023-04-22T03:48:31;19.03;;;17.13;;
48861;SDS011;34681;49.188;-0.374;2023-04-22T03:50:59;18.30;;;16.60;;
48861;SDS011;34681;49.188;-0.374;2023-04-22T03:53:25;17.00;;;15.40;;
48861;SDS011;34681;49.188;-0.374;2023-04-22T03:55:50;18.37;;;16.50;;
48861;SDS011;34681;49.188;-0.374;2023-04-22T03:58:16;19.03;;;17.23;;
48861;SDS011;34681;49.188;-0.374;2023-04-22T04:00:41;18.63;;;16.90;;
48861;SDS011;34681;49.188;-0.374;2023-04-22T04:03:07;20.37;;;18.37;;
48861;SDS011;34681;49.188;-0.374;2023-04-22T04:05:32;17.03;;;15.33;;
48861;SDS011;34681;49.188;-0.374;2023-04-22T04:07:57;17.07;;;15.57;;
48861;SDS011;34681;49.188;-0.374;2023-04-22T04:10:23;18.10;;;16.33;;
48861;SDS011;34681;49.188;-0.374;2023-04-22T04:12:48;18.33;;;16.40;;
48861;SDS011;34681;49.188;-0.374;2023-04-22T04:15:14;19.63;;;17.83;;
48861;SDS011;34681;49.188;-0.374;2023-04-22T04:17:39;19.40;;;17.47;;
48861;SDS011;34681;49.188;-0.374;2023-04-22T04:20:04;19.43;;;17.63;;
48861;SDS011;34681;49.188;-0.374;2023-04-22T04:22:31;18.63;;;16.83;;
48861;SDS011;34681;49.188;-0.374;2023-04-22T04:24:57;18.53;;;16.70;;
48861;SDS011;34681;49.188;-0.374;2023-04-22T04:27:22;20.40;;;18.40;;
48861;SDS011;34681;49.188;-0.374;2023-04-22T04:29:48;20.10;;;17.00;;
48861;SDS011;34681;49.188;-0.374;2023-04-22T04:32:13;18.27;;;16.57;;
48861;SDS011;34681;49.188;-0.374;2023-04-22T04:34:39;18.40;;;16.67;;
48861;SDS011;34681;49.188;-0.374;2023-04-22T04:37:04;19.13;;;17.13;;
48861;SDS011;34681;49.188;-0.374;2023-04-22T04:39:29;17.40;;;15.90;;
48861;SDS011;34681;49.188;-0.374;2023-04-22T04:41:55;19.50;;;17.50;;
48861;SDS011;34681;49.188;-0.374;2023-04-22T04:44:22;19.10;;;17.30;;
48861;SDS011;34681;49.188;-0.374;2023-04-22T04:46:48;18.77;;;16.97;;
48861;SDS011;34681;49.188;-0.374;2023-04-22T04:49:14;17.67;;;16.00;;
48861;SDS011;34681;49.188;-0.374;2023-04-22T04:51:40;18.40;;;16.70;;
48861;SDS011;34681;49.188;-0.374;2023-04-22T04:54:06;17.57;;;15.97;;
48861;SDS011;34681;49.188;-0.374;2023-04-22T04:56:31;15.90;;;14.50;;
48861;SDS011;34681;49.188;-0.374;2023-04-22T04:58:57;18.03;;;16.43;;
48861;SDS011;34681;49.188;-0.374;2023-04-22T05:01:22;18.73;;;16.73;;
48861;SDS011;34681;49.188;-0.374;2023-04-22T05:03:47;17.87;;;16.27;;
48861;SDS011;34681;49.188;-0.374;2023-04-22T05:06:13;17.90;;;16.27;;
48861;SDS011;34681;49.188;-0.374;2023-04-22T05:08:38;17.97;;;16.23;;
48861;SDS011;34681;49.188;-0.374;2023-04-22T05:11:03;16.70;;;15.20;;
48861;SDS011;34681;49.188;-0.374;2023-04-22T05:13:29;17.43;;;15.83;;
48861;SDS011;34681;49.188;-0.374;2023-04-22T05:15:54;16.57;;;15.07;;
48861;SDS011;34681;49.188;-0.374;2023-04-22T05:18:20;15.97;;;14.47;;
48861;SDS011;34681;49.188;-0.374;2023-04-22T05:20:46;14.60;;;13.20;;
48861;SDS011;34681;49.188;-0.374;2023-04-22T05:23:11;18.87;;;17.07;;
48861;SDS011;34681;49.188;-0.374;2023-04-22T05:25:36;17.27;;;15.67;;
48861;SDS011;34681;49.188;-0.374;2023-04-22T05:28:02;18.20;;;16.30;;
48861;SDS011;34681;49.188;-0.374;2023-04-22T05:30:27;16.33;;;14.67;;
48861;SDS011;34681;49.188;-0.374;2023-04-22T05:32:52;14.63;;;13.23;;
48861;SDS011;34681;49.188;-0.374;2023-04-22T05:35:18;15.30;;;13.73;;
48861;SDS011;34681;49.188;-0.374;2023-04-22T05:37:43;15.30;;;13.77;;
48861;SDS011;34681;49.188;-0.374;2023-04-22T05:40:08;14.40;;;13.13;;
48861;SDS011;34681;49.188;-0.374;2023-04-22T05:42:34;14.17;;;12.90;;
48861;SDS011;34681;49.188;-0.374;2023-04-22T05:44:59;14.07;;;12.83;;
48861;SDS011;34681;49.188;-0.374;2023-04-22T05:47:24;13.43;;;12.13;;
48861;SDS011;34681;49.188;-0.374;2023-04-22T05:49:50;13.43;;;12.23;;
48861;SDS011;34681;49.188;-0.374;2023-04-22T05:52:18;13.67;;;12.47;;
48861;SDS011;34681;49.188;-0.374;2023-04-22T05:54:53;13.83;;;12.63;;
48861;SDS011;34681;49.188;-0.374;2023-04-22T05:57:18;13.70;;;12.60;;
48861;SDS011;34681;49.188;-0.374;2023-04-22T05:59:44;16.13;;;14.43;;
48861;SDS011;34681;49.188;-0.374;2023-04-22T06:02:10;14.87;;;13.40;;
48861;SDS011;34681;49.188;-0.374;2023-04-22T06:04:35;14.67;;;13.37;;
48861;SDS011;34681;49.188;-0.374;2023-04-22T06:07:01;15.00;;;13.50;;
48861;SDS011;34681;49.188;-0.374;2023-04-22T06:09:26;16.83;;;15.33;;
48861;SDS011;34681;49.188;-0.374;2023-04-22T06:11:51;16.93;;;15.40;;
48861;SDS011;34681;49.188;-0.374;2023-04-22T06:14:16;14.70;;;13.40;;
48861;SDS011;34681;49.188;-0.374;2023-04-22T06:16:42;14.23;;;12.93;;
48861;SDS011;34681;49.188;-0.374;2023-04-22T06:19:07;16.33;;;14.93;;
48861;SDS011;34681;49.188;-0.374;2023-04-22T06:21:33;16.07;;;14.60;;
48861;SDS011;34681;49.188;-0.374;2023-04-22T06:23:58;15.20;;;13.80;;
48861;SDS011;34681;49.188;-0.374;2023-04-22T06:26:25;15.43;;;14.03;;
48861;SDS011;34681;49.188;-0.374;2023-04-22T06:28:50;16.10;;;14.60;;
48861;SDS011;34681;49.188;-0.374;2023-04-22T06:31:16;14.50;;;13.10;;
48861;SDS011;34681;49.188;-0.374;2023-04-22T06:33:41;14.67;;;13.23;;
48861;SDS011;34681;49.188;-0.374;2023-04-22T06:36:07;13.87;;;12.63;;
48861;SDS011;34681;49.188;-0.374;2023-04-22T06:38:32;13.97;;;12.77;;
48861;SDS011;34681;49.188;-0.374;2023-04-22T06:40:57;14.00;;;12.80;;
48861;SDS011;34681;49.188;-0.374;2023-04-22T06:43:23;14.00;;;12.70;;
48861;SDS011;34681;49.188;-0.374;2023-04-22T06:45:48;13.37;;;12.20;;
48861;SDS011;34681;49.188;-0.374;2023-04-22T06:48:13;13.40;;;12.30;;
48861;SDS011;34681;49.188;-0.374;2023-04-22T06:50:39;13.93;;;12.60;;
48861;SDS011;34681;49.188;-0.374;2023-04-22T06:53:04;13.90;;;12.60;;
48861;SDS011;34681;49.188;-0.374;2023-04-22T06:55:29;13.33;;;12.13;;
48861;SDS011;34681;49.188;-0.374;2023-04-22T06:57:55;13.30;;;12.10;;
48861;SDS011;34681;49.188;-0.374;2023-04-22T07:00:20;11.63;;;10.73;;
48861;SDS011;34681;49.188;-0.374;2023-04-22T07:02:46;12.73;;;11.73;;
48861;SDS011;34681;49.188;-0.374;2023-04-22T07:05:11;12.37;;;11.27;;
48861;SDS011;34681;49.188;-0.374;2023-04-22T07:07:36;13.07;;;12.07;;
48861;SDS011;34681;49.188;-0.374;2023-04-22T07:10:02;11.40;;;10.47;;
48861;SDS011;34681;49.188;-0.374;2023-04-22T07:12:28;12.30;;;11.20;;
48861;SDS011;34681;49.188;-0.374;2023-04-22T07:14:53;14.37;;;13.20;;
48861;SDS011;34681;49.188;-0.374;2023-04-22T07:17:18;13.87;;;12.67;;
48861;SDS011;34681;49.188;-0.374;2023-04-22T07:19:46;13.00;;;11.90;;
48861;SDS011;34681;49.188;-0.374;2023-04-22T07:22:12;13.33;;;12.03;;
48861;SDS011;34681;49.188;-0.374;2023-04-22T07:24:37;14.20;;;13.03;;
48861;SDS011;34681;49.188;-0.374;2023-04-22T07:27:03;13.77;;;12.67;;
48861;SDS011;34681;49.188;-0.374;2023-04-22T07:29:29;11.93;;;11.00;;
48861;SDS011;34681;49.188;-0.374;2023-04-22T07:31:54;12.70;;;11.60;;
48861;SDS011;34681;49.188;-0.374;2023-04-22T07:34:20;10.57;;;9.77;;
48861;SDS011;34681;49.188;-0.374;2023-04-22T07:36:45;11.73;;;10.70;;
48861;SDS011;34681;49.188;-0.374;2023-04-22T07:39:11;10.83;;;10.03;;
48861;SDS011;34681;49.188;-0.374;2023-04-22T07:41:36;10.80;;;10.00;;
48861;SDS011;34681;49.188;-0.374;2023-04-22T07:44:01;9.47;;;8.77;;
48861;SDS011;34681;49.188;-0.374;2023-04-22T07:46:27;10.60;;;9.80;;
48861;SDS011;34681;49.188;-0.374;2023-04-22T07:48:53;9.60;;;8.90;;
48861;SDS011;34681;49.188;-0.374;2023-04-22T07:51:18;9.57;;;8.97;;
48861;SDS011;34681;49.188;-0.374;2023-04-22T07:53:44;9.27;;;8.67;;
48861;SDS011;34681;49.188;-0.374;2023-04-22T07:56:09;8.63;;;8.13;;
48861;SDS011;34681;49.188;-0.374;2023-04-22T07:58:35;8.90;;;8.40;;
48861;SDS011;34681;49.188;-0.374;2023-04-22T08:01:00;10.00;;;9.30;;
48861;SDS011;34681;49.188;-0.374;2023-04-22T08:03:25;8.87;;;8.10;;
48861;SDS011;34681;49.188;-0.374;2023-04-22T08:05:51;11.27;;;10.30;;
48861;SDS011;34681;49.188;-0.374;2023-04-22T08:08:16;9.90;;;9.40;;
48861;SDS011;34681;49.188;-0.374;2023-04-22T08:10:42;12.60;;;11.70;;
48861;SDS011;34681;49.188;-0.374;2023-04-22T08:13:07;9.50;;;8.90;;
48861;SDS011;34681;49.188;-0.374;2023-04-22T08:15:32;9.33;;;8.63;;
48861;SDS011;34681;49.188;-0.374;2023-04-22T08:17:58;9.10;;;8.47;;
48861;SDS011;34681;49.188;-0.374;2023-04-22T08:20:23;7.90;;;7.40;;
48861;SDS011;34681;49.188;-0.374;2023-04-22T08:22:49;9.20;;;8.50;;
48861;SDS011;34681;49.188;-0.374;2023-04-22T08:25:16;7.60;;;7.10;;
48861;SDS011;34681;49.188;-0.374;2023-04-22T08:27:41;8.43;;;7.73;;
48861;SDS011;34681;49.188;-0.374;2023-04-22T08:30:06;8.87;;;8.10;;
48861;SDS011;34681;49.188;-0.374;2023-04-22T08:32:32;9.70;;;7.70;;
48861;SDS011;34681;49.188;-0.374;2023-04-22T08:34:58;8.93;;;8.33;;
48861;SDS011;34681;49.188;-0.374;2023-04-22T08:37:23;8.50;;;7.90;;
48861;SDS011;34681;49.188;-0.374;2023-04-22T08:39:49;8.77;;;8.17;;
48861;SDS011;34681;49.188;-0.374;2023-04-22T08:42:14;8.23;;;7.73;;
48861;SDS011;34681;49.188;-0.374;2023-04-22T08:44:40;8.23;;;7.70;;
48861;SDS011;34681;49.188;-0.374;2023-04-22T08:47:05;7.57;;;7.10;;
48861;SDS011;34681;49.188;-0.374;2023-04-22T08:49:33;8.10;;;7.50;;
48861;SDS011;34681;49.188;-0.374;2023-04-22T08:52:00;7.90;;;7.07;;
48861;SDS011;34681;49.188;-0.374;2023-04-22T08:54:25;8.50;;;7.80;;
48861;SDS011;34681;49.188;-0.374;2023-04-22T08:56:51;7.23;;;6.60;;
48861;SDS011;34681;49.188;-0.374;2023-04-22T08:59:17;8.03;;;7.43;;
48861;SDS011;34681;49.188;-0.374;2023-04-22T09:01:44;7.77;;;7.33;;
48861;SDS011;34681;49.188;-0.374;2023-04-22T09:04:15;9.47;;;8.83;;
48861;SDS011;34681;49.188;-0.374;2023-04-22T09:06:42;7.83;;;7.27;;
48861;SDS011;34681;49.188;-0.374;2023-04-22T09:09:07;7.70;;;7.10;;
48861;SDS011;34681;49.188;-0.374;2023-04-22T09:11:33;9.40;;;8.70;;
48861;SDS011;34681;49.188;-0.374;2023-04-22T09:13:59;8.10;;;7.60;;
48861;SDS011;34681;49.188;-0.374;2023-04-22T09:16:28;10.33;;;9.43;;
48861;SDS011;34681;49.188;-0.374;2023-04-22T09:18:54;11.17;;;10.30;;
48861;SDS011;34681;49.188;-0.374;2023-04-22T09:21:20;8.53;;;8.03;;
48861;SDS011;34681;49.188;-0.374;2023-04-22T09:23:50;8.47;;;7.87;;
48861;SDS011;34681;49.188;-0.374;2023-04-22T09:26:18;8.23;;;7.00;;
48861;SDS011;34681;49.188;-0.374;2023-04-22T09:28:54;7.20;;;6.80;;
48861;SDS011;34681;49.188;-0.374;2023-04-22T09:31:25;8.60;;;7.90;;
48861;SDS011;34681;49.188;-0.374;2023-04-22T09:33:54;8.07;;;7.57;;
48861;SDS011;34681;49.188;-0.374;2023-04-22T09:36:21;7.80;;;7.30;;
48861;SDS011;34681;49.188;-0.374;2023-04-22T09:38:58;7.70;;;7.20;;
48861;SDS011;34681;49.188;-0.374;2023-04-22T09:41:31;7.30;;;6.80;;
48861;SDS011;34681;49.188;-0.374;2023-04-22T09:43:59;8.37;;;7.87;;
48861;SDS011;34681;49.188;-0.374;2023-04-22T09:46:26;7.50;;;7.00;;
48861;SDS011;34681;49.188;-0.374;2023-04-22T09:48:56;7.27;;;6.67;;
48861;SDS011;34681;49.188;-0.374;2023-04-22T09:51:23;7.27;;;6.77;;
48861;SDS011;34681;49.188;-0.374;2023-04-22T09:54:22;7.23;;;6.73;;
48861;SDS011;34681;49.188;-0.374;2023-04-22T09:56:50;8.30;;;7.70;;
48861;SDS011;34681;49.188;-0.374;2023-04-22T09:59:21;6.60;;;6.20;;
48861;SDS011;34681;49.188;-0.374;2023-04-22T10:01:49;8.80;;;8.13;;
48861;SDS011;34681;49.188;-0.374;2023-04-22T10:04:19;7.40;;;6.90;;
48861;SDS011;34681;49.188;-0.374;2023-04-22T10:06:49;6.40;;;6.00;;
48861;SDS011;34681;49.188;-0.374;2023-04-22T10:09:18;7.30;;;6.80;;
48861;SDS011;34681;49.188;-0.374;2023-04-22T10:11:46;7.53;;;6.80;;
48861;SDS011;34681;49.188;-0.374;2023-04-22T10:14:12;7.10;;;6.60;;
48861;SDS011;34681;49.188;-0.374;2023-04-22T10:16:39;7.53;;;6.93;;
48861;SDS011;34681;49.188;-0.374;2023-04-22T10:19:08;8.83;;;8.03;;
48861;SDS011;34681;49.188;-0.374;2023-04-22T10:21:39;7.30;;;6.80;;
48861;SDS011;34681;49.188;-0.374;2023-04-22T10:24:05;7.03;;;6.60;;
48861;SDS011;34681;49.188;-0.374;2023-04-22T10:26:38;6.37;;;5.87;;
48861;SDS011;34681;49.188;-0.374;2023-04-22T10:29:23;6.40;;;6.00;;
48861;SDS011;34681;49.188;-0.374;2023-04-22T10:31:54;5.37;;;5.00;;
48861;SDS011;34681;49.188;-0.374;2023-04-22T10:34:29;5.90;;;5.47;;
48861;SDS011;34681;49.188;-0.374;2023-04-22T10:37:05;5.83;;;5.43;;
48861;SDS011;34681;49.188;-0.374;2023-04-22T10:39:32;5.23;;;4.87;;
48861;SDS011;34681;49.188;-0.374;2023-04-22T10:44:52;6.03;;;4.63;;
48861;SDS011;34681;49.188;-0.374;2023-04-22T10:47:29;5.57;;;5.10;;
48861;SDS011;34681;49.188;-0.374;2023-04-22T10:52:54;5.20;;;4.80;;
48861;SDS011;34681;49.188;-0.374;2023-04-22T10:55:24;5.30;;;4.80;;
48861;SDS011;34681;49.188;-0.374;2023-04-22T10:57:50;4.70;;;4.50;;
48861;SDS011;34681;49.188;-0.374;2023-04-22T11:00:19;4.97;;;4.67;;
48861;SDS011;34681;49.188;-0.374;2023-04-22T11:02:51;5.50;;;5.20;;
48861;SDS011;34681;49.188;-0.374;2023-04-22T11:05:32;7.20;;;5.10;;
48861;SDS011;34681;49.188;-0.374;2023-04-22T11:08:03;5.73;;;5.33;;
48861;SDS011;34681;49.188;-0.374;2023-04-22T11:13:10;5.90;;;5.47;;
48861;SDS011;34681;49.188;-0.374;2023-04-22T11:15:38;6.20;;;5.70;;
48861;SDS011;34681;49.188;-0.374;2023-04-22T11:18:09;4.93;;;4.37;;
48861;SDS011;34681;49.188;-0.374;2023-04-22T11:20:37;6.27;;;5.73;;
48861;SDS011;34681;49.188;-0.374;2023-04-22T11:23:03;6.00;;;5.53;;
48861;SDS011;34681;49.188;-0.374;2023-04-22T11:25:28;5.70;;;5.30;;
48861;SDS011;34681;49.188;-0.374;2023-04-22T11:27:55;6.20;;;5.70;;
48861;SDS011;34681;49.188;-0.374;2023-04-22T11:30:22;6.60;;;6.00;;
48861;SDS011;34681;49.188;-0.374;2023-04-22T11:32:49;6.00;;;5.60;;
48861;SDS011;34681;49.188;-0.374;2023-04-22T11:35:23;4.90;;;4.60;;
48861;SDS011;34681;49.188;-0.374;2023-04-22T11:40:20;4.60;;;4.30;;
48861;SDS011;34681;49.188;-0.374;2023-04-22T11:42:49;4.80;;;4.50;;
48861;SDS011;34681;49.188;-0.374;2023-04-22T11:45:15;4.80;;;4.27;;
48861;SDS011;34681;49.188;-0.374;2023-04-22T11:47:40;4.50;;;4.20;;
48861;SDS011;34681;49.188;-0.374;2023-04-22T11:50:09;4.63;;;4.33;;
48861;SDS011;34681;49.188;-0.374;2023-04-22T11:52:46;5.00;;;4.60;;
48861;SDS011;34681;49.188;-0.374;2023-04-22T11:57:53;5.73;;;5.33;;
48861;SDS011;34681;49.188;-0.374;2023-04-22T12:00:41;4.77;;;4.47;;
48861;SDS011;34681;49.188;-0.374;2023-04-22T12:08:20;5.97;;;5.47;;
48861;SDS011;34681;49.188;-0.374;2023-04-22T12:13:24;5.50;;;5.00;;
48861;SDS011;34681;49.188;-0.374;2023-04-22T12:15:58;4.37;;;4.03;;
48861;SDS011;34681;49.188;-0.374;2023-04-22T12:18:28;3.40;;;3.20;;
48861;SDS011;34681;49.188;-0.374;2023-04-22T12:21:13;4.77;;;4.33;;
48861;SDS011;34681;49.188;-0.374;2023-04-22T12:23:45;3.40;;;3.20;;
48861;SDS011;34681;49.188;-0.374;2023-04-22T12:26:16;3.30;;;3.00;;
48861;SDS011;34681;49.188;-0.374;2023-04-22T12:28:42;3.37;;;3.17;;
48861;SDS011;34681;49.188;-0.374;2023-04-22T12:31:09;3.90;;;3.60;;
48861;SDS011;34681;49.188;-0.374;2023-04-22T12:33:35;2.50;;;2.30;;
48861;SDS011;34681;49.188;-0.374;2023-04-22T12:36:02;2.20;;;2.10;;
48861;SDS011;34681;49.188;-0.374;2023-04-22T12:38:28;2.73;;;2.27;;
48861;SDS011;34681;49.188;-0.374;2023-04-22T12:40:54;2.43;;;1.80;;
48861;SDS011;34681;49.188;-0.374;2023-04-22T12:43:19;3.53;;;2.90;;
48861;SDS011;34681;49.188;-0.374;2023-04-22T12:45:45;2.90;;;2.70;;
48861;SDS011;34681;49.188;-0.374;2023-04-22T12:48:10;3.33;;;2.80;;
48861;SDS011;34681;49.188;-0.374;2023-04-22T12:50:36;4.73;;;3.53;;
48861;SDS011;34681;49.188;-0.374;2023-04-22T12:53:01;3.03;;;2.90;;
48861;SDS011;34681;49.188;-0.374;2023-04-22T12:55:26;5.50;;;5.10;;
48861;SDS011;34681;49.188;-0.374;2023-04-22T12:57:52;4.27;;;3.97;;
48861;SDS011;34681;49.188;-0.374;2023-04-22T13:00:18;3.77;;;3.47;;
48861;SDS011;34681;49.188;-0.374;2023-04-22T13:02:45;4.43;;;4.03;;
48861;SDS011;34681;49.188;-0.374;2023-04-22T13:05:12;3.80;;;3.60;;
48861;SDS011;34681;49.188;-0.374;2023-04-22T13:07:38;3.30;;;3.10;;
48861;SDS011;34681;49.188;-0.374;2023-04-22T13:10:05;3.37;;;3.17;;
48861;SDS011;34681;49.188;-0.374;2023-04-22T13:12:32;3.40;;;3.20;;
48861;SDS011;34681;49.188;-0.374;2023-04-22T13:14:58;3.73;;;3.43;;
48861;SDS011;34681;49.188;-0.374;2023-04-22T13:17:23;3.97;;;3.77;;
48861;SDS011;34681;49.188;-0.374;2023-04-22T13:19:50;5.13;;;3.60;;
48861;SDS011;34681;49.188;-0.374;2023-04-22T13:22:15;3.93;;;3.73;;
48861;SDS011;34681;49.188;-0.374;2023-04-22T13:24:41;4.33;;;4.03;;
48861;SDS011;34681;49.188;-0.374;2023-04-22T13:27:06;3.33;;;3.00;;
48861;SDS011;34681;49.188;-0.374;2023-04-22T13:29:32;4.50;;;4.20;;
48861;SDS011;34681;49.188;-0.374;2023-04-22T13:31:58;4.47;;;4.07;;
48861;SDS011;34681;49.188;-0.374;2023-04-22T13:34:23;4.47;;;4.07;;
48861;SDS011;34681;49.188;-0.374;2023-04-22T13:36:49;4.20;;;3.87;;
48861;SDS011;34681;49.188;-0.374;2023-04-22T13:39:15;4.00;;;3.70;;
48861;SDS011;34681;49.188;-0.374;2023-04-22T13:41:40;4.20;;;3.80;;
48861;SDS011;34681;49.188;-0.374;2023-04-22T13:44:06;7.77;;;4.67;;
48861;SDS011;34681;49.188;-0.374;2023-04-22T13:46:31;4.63;;;4.20;;
48861;SDS011;34681;49.188;-0.374;2023-04-22T13:48:57;3.90;;;3.70;;
48861;SDS011;34681;49.188;-0.374;2023-04-22T13:51:22;3.50;;;3.30;;
48861;SDS011;34681;49.188;-0.374;2023-04-22T13:53:48;4.10;;;3.80;;
48861;SDS011;34681;49.188;-0.374;2023-04-22T13:56:13;4.50;;;4.20;;
48861;SDS011;34681;49.188;-0.374;2023-04-22T13:58:39;3.97;;;3.77;;
48861;SDS011;34681;49.188;-0.374;2023-04-22T14:01:06;4.00;;;3.13;;
48861;SDS011;34681;49.188;-0.374;2023-04-22T14:03:32;3.73;;;3.23;;
48861;SDS011;34681;49.188;-0.374;2023-04-22T14:05:58;4.33;;;3.43;;
48861;SDS011;34681;49.188;-0.374;2023-04-22T14:08:25;3.60;;;3.30;;
48861;SDS011;34681;49.188;-0.374;2023-04-22T14:10:50;3.10;;;2.80;;
48861;SDS011;34681;49.188;-0.374;2023-04-22T14:13:15;5.70;;;3.50;;
48861;SDS011;34681;49.188;-0.374;2023-04-22T14:15:41;3.10;;;2.40;;
48861;SDS011;34681;49.188;-0.374;2023-04-22T14:18:06;3.53;;;1.97;;
48861;SDS011;34681;49.188;-0.374;2023-04-22T14:20:32;1.80;;;1.70;;
48861;SDS011;34681;49.188;-0.374;2023-04-22T14:22:57;2.83;;;2.23;;
48861;SDS011;34681;49.188;-0.374;2023-04-22T14:25:23;2.20;;;1.73;;
48861;SDS011;34681;49.188;-0.374;2023-04-22T14:27:48;2.80;;;1.90;;
48861;SDS011;34681;49.188;-0.374;2023-04-22T14:30:13;3.43;;;2.00;;
48861;SDS011;34681;49.188;-0.374;2023-04-22T14:32:40;3.53;;;1.80;;
48861;SDS011;34681;49.188;-0.374;2023-04-22T14:35:06;4.17;;;2.20;;
48861;SDS011;34681;49.188;-0.374;2023-04-22T14:37:32;2.17;;;2.00;;